createdAt,value
2022-07-28T00:00:15.276Z,89.15
2022-07-28T00:02:42.314Z,88.35
2022-07-28T00:05:10.348Z,76.45
2022-07-28T00:07:37.577Z,77.90
2022-07-28T00:10:05.587Z,82.32
2022-07-28T00:12:32.803Z,77.15
2022-07-28T00:15:00.314Z,86.78
2022-07-28T00:17:27.702Z,76.95
2022-07-28T00:19:55.253Z,82.97
2022-07-28T00:22:22.501Z,75.10
2022-07-28T00:24:50.326Z,99.45
2022-07-28T00:27:19.340Z,88.05
2022-07-28T00:29:50.995Z,95.38
2022-07-28T00:32:20.768Z,79.80
2022-07-28T00:34:53.905Z,91.53
2022-07-28T00:37:22.024Z,76.72
2022-07-28T00:39:49.217Z,93.88
2022-07-28T00:42:20.561Z,106.40
2022-07-28T00:44:49.166Z,85.25
2022-07-28T00:47:17.083Z,86.35
2022-07-28T00:49:45.910Z,102.68
2022-07-28T00:52:13.390Z,92.25
2022-07-28T00:54:41.022Z,75.07
2022-07-28T00:57:08.366Z,104.10
2022-07-28T00:59:35.719Z,74.43
2022-07-28T01:02:03.663Z,96.60
2022-07-28T01:04:32.047Z,92.88
2022-07-28T01:07:12.105Z,80.43
2022-07-28T01:10:17.339Z,80.18
2022-07-28T01:13:01.611Z,85.03
2022-07-28T01:15:41.547Z,75.75
2022-07-28T01:18:35.142Z,88.40
2022-07-28T01:21:19.615Z,109.93
2022-07-28T01:24:10.713Z,90.50
2022-07-28T01:26:43.976Z,92.32
2022-07-28T01:29:24.260Z,95.22
2022-07-28T01:32:27.902Z,101.47
2022-07-28T01:35:05.746Z,95.95
2022-07-28T01:37:36.252Z,87.40
2022-07-28T01:40:07.987Z,96.97
2022-07-28T01:42:43.573Z,75.53
2022-07-28T01:45:12.707Z,76.95
2022-07-28T01:47:43.511Z,88.35
2022-07-28T01:50:13.454Z,99.25
2022-07-28T01:52:42.853Z,73.13
2022-07-28T01:55:11.582Z,90.20
2022-07-28T01:57:39.898Z,81.53
2022-07-28T02:00:10.724Z,102.40
2022-07-28T02:02:43.862Z,98.07
2022-07-28T02:05:15.555Z,103.15
2022-07-28T02:07:47.717Z,79.55
2022-07-28T02:10:17.382Z,90.07
2022-07-28T02:12:46.692Z,97.00
2022-07-28T02:15:15.375Z,97.60
2022-07-28T02:17:46.015Z,86.35
2022-07-28T02:22:42.737Z,77.65
2022-07-28T02:25:10.776Z,93.95
2022-07-28T02:27:37.826Z,105.72
2022-07-28T02:30:10.031Z,85.45
2022-07-28T02:32:56.741Z,87.55
2022-07-28T02:35:34.239Z,97.80
2022-07-28T02:38:12.619Z,81.75
2022-07-28T02:40:42.830Z,95.70
2022-07-28T02:43:15.797Z,89.20
2022-07-28T02:45:52.066Z,104.70
2022-07-28T02:48:26.280Z,98.28
2022-07-28T02:50:57.370Z,95.10
2022-07-28T02:53:25.466Z,87.30
2022-07-28T02:55:53.800Z,85.50
2022-07-28T02:58:24.022Z,94.50
2022-07-28T03:00:53.783Z,88.63
2022-07-28T03:03:22.513Z,89.23
2022-07-28T03:05:50.462Z,103.13
2022-07-28T03:08:18.722Z,94.03
2022-07-28T03:10:45.914Z,94.90
2022-07-28T03:13:13.305Z,100.35
2022-07-28T03:15:41.012Z,110.43
2022-07-28T03:18:08.594Z,87.28
2022-07-28T03:20:36.161Z,98.15
2022-07-28T03:23:04.341Z,88.75
2022-07-28T03:25:51.890Z,90.70
2022-07-28T03:28:21.479Z,103.80
2022-07-28T03:30:56.101Z,104.03
2022-07-28T03:33:24.234Z,99.00
2022-07-28T03:35:53.692Z,98.78
2022-07-28T03:38:29.623Z,103.25
2022-07-28T03:40:58.821Z,99.00
2022-07-28T03:43:27.567Z,99.55
2022-07-28T03:45:54.743Z,98.32
2022-07-28T03:48:29.231Z,102.18
2022-07-28T03:50:56.563Z,112.72
2022-07-28T03:53:27.030Z,110.95
2022-07-28T03:55:54.683Z,111.85
2022-07-28T03:58:26.078Z,115.25
2022-07-28T04:00:56.217Z,100.70
2022-07-28T04:03:42.668Z,115.85
2022-07-28T04:06:11.040Z,99.32
2022-07-28T04:08:38.192Z,104.63
2022-07-28T04:11:05.586Z,124.43
2022-07-28T04:13:32.727Z,107.68
2022-07-28T04:16:00.602Z,129.02
2022-07-28T04:18:28.063Z,106.63
2022-07-28T04:20:55.993Z,104.78
2022-07-28T04:23:24.144Z,96.43
2022-07-28T04:25:51.205Z,70.38
2022-07-28T04:28:18.531Z,100.78
2022-07-28T04:30:45.951Z,115.03
2022-07-28T04:33:14.105Z,89.55
2022-07-28T04:35:41.693Z,105.65
2022-07-28T04:38:08.892Z,112.22
2022-07-28T04:40:35.896Z,108.72
2022-07-28T04:43:04.072Z,100.35
2022-07-28T04:45:31.299Z,109.65
2022-07-28T04:47:58.457Z,117.13
2022-07-28T04:50:25.835Z,119.10
2022-07-28T04:52:58.969Z,106.93
2022-07-28T04:55:26.463Z,99.45
2022-07-28T04:57:53.459Z,94.90
2022-07-28T05:00:22.116Z,102.90
2022-07-28T05:02:51.369Z,102.50
2022-07-28T05:05:18.754Z,106.63
2022-07-28T05:07:45.880Z,111.00
2022-07-28T05:10:14.324Z,91.88
2022-07-28T05:12:41.805Z,102.00
2022-07-28T05:15:09.699Z,84.10
2022-07-28T05:17:37.172Z,104.03
2022-07-28T05:20:05.795Z,103.30
2022-07-28T05:22:48.025Z,92.78
2022-07-28T05:25:20.330Z,95.90
2022-07-28T05:27:48.633Z,88.90
2022-07-28T05:30:16.427Z,105.25
2022-07-28T05:32:45.430Z,103.80
2022-07-28T05:35:13.218Z,109.65
2022-07-28T05:37:40.585Z,113.30
2022-07-28T05:40:18.341Z,110.10
2022-07-28T05:42:47.541Z,112.15
2022-07-28T05:45:16.847Z,106.85
2022-07-28T05:47:52.709Z,106.47
2022-07-28T05:50:22.520Z,95.13
2022-07-28T05:52:51.287Z,104.20
2022-07-28T05:55:18.730Z,112.68
2022-07-28T05:57:46.050Z,111.38
2022-07-28T06:00:16.574Z,103.90
2022-07-28T06:02:49.632Z,104.40
2022-07-28T06:05:18.506Z,106.78
2022-07-28T06:07:47.095Z,113.68
2022-07-28T06:10:18.654Z,94.60
2022-07-28T06:12:48.332Z,115.15
2022-07-28T06:15:18.283Z,93.83
2022-07-28T06:17:45.667Z,102.80
2022-07-28T06:20:13.814Z,83.07
2022-07-28T06:22:46.014Z,76.97
2022-07-28T06:25:20.920Z,89.05
2022-07-28T06:27:49.882Z,79.40
2022-07-28T06:30:18.340Z,88.53
2022-07-28T06:32:47.601Z,72.90
2022-07-28T06:35:16.687Z,69.25
2022-07-28T06:37:44.536Z,58.05
2022-07-28T06:40:12.479Z,72.05
2022-07-28T06:42:40.313Z,71.13
2022-07-28T06:45:08.558Z,63.15
2022-07-28T06:47:35.748Z,61.17
2022-07-28T06:50:04.083Z,52.63
2022-07-28T06:52:31.994Z,53.28
2022-07-28T06:55:00.570Z,51.25
2022-07-28T06:57:33.419Z,44.47
2022-07-28T07:00:03.457Z,45.30
2022-07-28T07:02:30.609Z,40.92
2022-07-28T07:04:58.042Z,39.78
2022-07-28T07:07:26.396Z,45.72
2022-07-28T07:09:53.558Z,44.17
2022-07-28T07:12:20.611Z,42.05
2022-07-28T07:14:47.664Z,37.10
2022-07-28T07:17:14.667Z,44.90
2022-07-28T07:19:41.791Z,39.85
2022-07-28T07:22:08.802Z,42.28
2022-07-28T07:24:37.947Z,34.67
2022-07-28T07:27:05.057Z,33.85
2022-07-28T07:29:32.310Z,29.63
2022-07-28T07:31:59.632Z,32.15
2022-07-28T07:34:26.903Z,31.40
2022-07-28T07:36:53.946Z,31.65
2022-07-28T07:39:21.140Z,31.30
2022-07-28T07:41:48.156Z,27.77
2022-07-28T07:44:16.481Z,30.33
2022-07-28T07:46:44.055Z,30.90
2022-07-28T07:49:11.275Z,30.58
2022-07-28T07:51:38.339Z,28.85
2022-07-28T07:54:05.407Z,28.45
2022-07-28T07:56:32.576Z,28.08
2022-07-28T07:58:59.864Z,38.97
2022-07-28T08:01:26.898Z,40.15
2022-07-28T08:03:53.913Z,31.02
2022-07-28T08:06:26.651Z,32.47
2022-07-28T08:08:54.972Z,35.03
2022-07-28T08:11:21.958Z,41.83
2022-07-28T08:13:49.275Z,39.85
2022-07-28T08:16:16.714Z,41.85
2022-07-28T08:18:44.877Z,45.88
2022-07-28T08:21:13.144Z,36.80
2022-07-28T08:23:40.266Z,45.05
2022-07-28T08:26:08.017Z,41.83
2022-07-28T08:28:35.302Z,38.42
2022-07-28T08:31:02.425Z,53.35
2022-07-28T08:33:30.156Z,44.10
2022-07-28T08:35:57.252Z,43.50
2022-07-28T08:38:24.423Z,36.50
2022-07-28T08:40:53.504Z,40.97
2022-07-28T08:43:38.794Z,42.72
2022-07-28T08:46:06.951Z,38.40
2022-07-28T08:48:35.913Z,40.72
2022-07-28T08:51:09.346Z,22.50
2022-07-28T08:53:39.450Z,18.30
2022-07-28T08:56:08.109Z,11.75
2022-07-28T08:58:36.696Z,7.55
2022-07-28T09:01:05.588Z,12.30
2022-07-28T09:03:32.794Z,8.77
2022-07-28T09:06:00.029Z,7.55
2022-07-28T09:08:27.455Z,10.93
2022-07-28T09:10:54.818Z,7.45
2022-07-28T09:13:22.171Z,8.05
2022-07-28T09:15:49.366Z,9.20
2022-07-28T09:18:18.124Z,8.60
2022-07-28T09:20:45.638Z,8.43
2022-07-28T09:23:41.720Z,8.68
2022-07-28T09:26:11.271Z,7.82
2022-07-28T09:28:51.494Z,8.32
2022-07-28T09:31:20.179Z,10.25
2022-07-28T09:33:57.186Z,9.65
2022-07-28T09:36:24.705Z,11.80
2022-07-28T09:38:52.016Z,10.13
2022-07-28T09:41:21.777Z,9.50
2022-07-28T09:43:54.813Z,10.10
2022-07-28T09:46:25.666Z,9.57
2022-07-28T09:48:57.491Z,11.02
2022-07-28T09:51:27.581Z,8.38
2022-07-28T09:54:08.545Z,7.70
2022-07-28T09:56:36.355Z,9.68
2022-07-28T09:59:04.403Z,11.75
2022-07-28T10:01:36.526Z,12.90
2022-07-28T10:04:04.766Z,13.95
2022-07-28T10:06:34.323Z,13.25
2022-07-28T10:09:04.330Z,14.97
2022-07-28T10:11:32.040Z,10.38
2022-07-28T10:14:07.711Z,9.18
2022-07-28T10:16:43.753Z,10.23
2022-07-28T10:19:10.882Z,8.60
2022-07-28T10:21:46.299Z,11.10
2022-07-28T10:24:23.104Z,9.82
2022-07-28T10:26:52.807Z,13.30
2022-07-28T10:29:22.036Z,15.25
2022-07-28T10:31:52.708Z,12.10
2022-07-28T10:34:39.181Z,13.52
2022-07-28T10:37:13.683Z,7.97
2022-07-28T10:39:44.622Z,8.45
2022-07-28T10:42:12.695Z,20.63
2022-07-28T10:44:41.637Z,22.50
2022-07-28T10:47:18.522Z,32.00
2022-07-28T10:49:48.971Z,31.02
2022-07-28T10:55:32.099Z,34.58
2022-07-28T10:58:25.099Z,30.63
2022-07-28T11:00:58.393Z,27.27
2022-07-28T11:03:44.320Z,27.10
2022-07-28T11:06:24.553Z,33.55
2022-07-28T11:08:57.878Z,30.55
2022-07-28T11:11:50.586Z,41.55
2022-07-28T11:14:24.534Z,33.28
2022-07-28T11:17:00.896Z,38.75
2022-07-28T11:19:36.640Z,39.75
2022-07-28T11:22:15.176Z,38.03
2022-07-28T11:25:20.833Z,40.60
2022-07-28T11:27:54.293Z,43.03
2022-07-28T11:30:36.369Z,40.08
2022-07-28T11:33:09.436Z,44.00
2022-07-28T11:35:39.684Z,50.65
2022-07-28T11:38:09.057Z,48.70
2022-07-28T11:40:51.152Z,57.00
2022-07-28T11:43:31.989Z,65.82
2022-07-28T11:46:09.418Z,87.72
2022-07-28T11:48:39.668Z,97.00
2022-07-28T11:51:06.817Z,121.25
2022-07-28T11:53:38.378Z,143.95
2022-07-28T11:56:10.243Z,152.20
2022-07-28T11:58:39.718Z,169.18
2022-07-28T12:01:20.688Z,165.15
2022-07-28T12:03:55.701Z,170.40
2022-07-28T12:06:35.713Z,158.02
2022-07-28T12:09:09.614Z,178.88
2022-07-28T12:11:41.057Z,181.57
2022-07-28T12:14:14.363Z,158.50
2022-07-28T12:16:43.485Z,180.45
2022-07-28T12:19:11.771Z,154.18
2022-07-28T12:21:49.903Z,158.85
2022-07-28T12:24:21.095Z,123.85
2022-07-28T12:26:50.222Z,79.53
2022-07-28T12:29:19.582Z,111.93
2022-07-28T12:34:35.310Z,155.68
2022-07-28T12:37:04.891Z,100.35
2022-07-28T12:39:36.872Z,98.32
2022-07-28T12:42:05.360Z,98.25
2022-07-28T12:44:39.013Z,68.82
2022-07-28T12:47:09.108Z,71.32
2022-07-28T12:52:22.341Z,49.75
2022-07-28T12:54:54.854Z,54.72
2022-07-28T12:57:48.877Z,40.80
2022-07-28T13:00:23.290Z,59.15
2022-07-28T13:02:52.695Z,56.08
2022-07-28T13:05:31.099Z,62.38
2022-07-28T13:08:02.001Z,68.75
2022-07-28T13:10:32.576Z,74.43
2022-07-28T13:13:05.893Z,103.10
2022-07-28T13:15:33.247Z,199.10
2022-07-28T13:18:00.794Z,138.43
2022-07-28T13:20:27.820Z,170.27
2022-07-28T13:22:55.813Z,213.73
2022-07-28T13:25:22.979Z,233.75
2022-07-28T13:28:01.067Z,224.25
2022-07-28T13:30:28.534Z,209.65
2022-07-28T13:32:56.675Z,241.68
2022-07-28T13:35:24.400Z,159.10
2022-07-28T13:37:51.528Z,184.05
2022-07-28T13:40:18.788Z,212.85
2022-07-28T13:42:53.296Z,211.10
2022-07-28T13:45:24.594Z,119.03
2022-07-28T13:47:51.898Z,131.10
2022-07-28T13:50:19.972Z,160.55
2022-07-28T13:52:47.263Z,163.18
2022-07-28T13:55:16.059Z,134.30
2022-07-28T13:57:46.452Z,145.50
2022-07-28T14:02:48.835Z,116.70
2022-07-28T14:05:16.293Z,147.38
2022-07-28T14:07:48.280Z,169.63
2022-07-28T14:10:18.111Z,141.43
2022-07-28T14:12:46.086Z,124.40
2022-07-28T14:15:14.263Z,150.90
2022-07-28T14:17:42.772Z,170.60
2022-07-28T14:20:15.684Z,155.52
2022-07-28T14:22:44.565Z,182.98
2022-07-28T14:25:20.722Z,155.48
2022-07-28T14:27:49.566Z,168.05
2022-07-28T14:30:17.725Z,149.05
2022-07-28T14:32:44.779Z,105.78
2022-07-28T14:35:12.120Z,96.15
2022-07-28T14:38:11.579Z,105.82
2022-07-28T14:40:26.390Z,79.97
2022-07-28T14:42:53.437Z,131.45
2022-07-28T14:45:20.720Z,108.78
2022-07-28T14:47:47.813Z,100.35
2022-07-28T14:50:15.080Z,108.90
2022-07-28T14:52:44.883Z,100.10
2022-07-28T14:55:12.866Z,108.43
2022-07-28T14:57:48.415Z,111.18
2022-07-28T15:00:19.746Z,115.03
2022-07-28T15:02:47.679Z,154.48
2022-07-28T15:05:14.922Z,130.00
2022-07-28T15:07:42.513Z,120.57
2022-07-28T15:10:10.657Z,141.90
2022-07-28T15:12:38.251Z,127.57
2022-07-28T15:15:05.818Z,123.07
2022-07-28T15:17:33.266Z,119.70
2022-07-28T15:20:00.677Z,131.15
2022-07-28T15:22:27.779Z,130.50
2022-07-28T15:24:55.188Z,153.38
2022-07-28T15:27:23.688Z,182.82
2022-07-28T15:29:53.136Z,154.38
2022-07-28T15:32:27.236Z,146.93
2022-07-28T15:34:55.862Z,156.40
2022-07-28T15:37:23.324Z,158.27
2022-07-28T15:39:50.538Z,137.85
2022-07-28T15:42:17.817Z,150.50
2022-07-28T15:44:44.893Z,144.43
2022-07-28T15:47:11.953Z,145.95
2022-07-28T15:49:39.040Z,167.25
2022-07-28T15:52:06.157Z,150.15
2022-07-28T15:54:33.370Z,140.48
2022-07-28T15:57:00.458Z,141.77
2022-07-28T15:59:48.690Z,137.60
2022-07-28T16:02:17.599Z,128.77
2022-07-28T16:07:24.999Z,102.63
2022-07-28T16:09:55.397Z,116.50
2022-07-28T16:14:50.011Z,92.03
2022-07-28T16:17:18.336Z,117.22
2022-07-28T16:19:49.469Z,116.45
2022-07-28T16:22:19.204Z,116.32
2022-07-28T16:24:46.197Z,121.57
2022-07-28T16:27:13.223Z,130.52
2022-07-28T16:29:41.024Z,121.43
2022-07-28T16:32:07.996Z,125.45
2022-07-28T16:34:35.917Z,118.88
2022-07-28T16:37:05.034Z,121.22
2022-07-28T16:39:34.248Z,118.32
2022-07-28T16:42:01.772Z,119.97
2022-07-28T16:44:29.380Z,116.68
2022-07-28T16:46:57.234Z,121.80
2022-07-28T16:49:24.808Z,116.40
2022-07-28T16:51:51.779Z,120.15
2022-07-28T16:54:19.548Z,126.53
2022-07-28T16:56:47.253Z,121.38
2022-07-28T16:59:14.553Z,126.50
2022-07-28T17:01:45.827Z,114.80
2022-07-28T17:04:14.888Z,121.63
2022-07-28T17:06:42.423Z,116.88
2022-07-28T17:09:10.085Z,117.20
2022-07-28T17:11:37.346Z,112.65
2022-07-28T17:14:04.709Z,101.70
2022-07-28T17:16:31.910Z,105.10
2022-07-28T17:18:59.571Z,100.72
2022-07-28T17:21:26.864Z,96.93
2022-07-28T17:23:54.304Z,98.70
2022-07-28T17:29:09.894Z,93.82
2022-07-28T17:31:38.429Z,85.65
2022-07-28T17:34:05.708Z,99.85
2022-07-28T17:36:35.649Z,83.85
2022-07-28T17:39:03.562Z,89.22
2022-07-28T17:41:30.635Z,81.53
2022-07-28T17:43:57.642Z,83.18
2022-07-28T17:46:26.436Z,85.13
2022-07-28T17:48:54.205Z,85.30
2022-07-28T17:51:21.320Z,81.70
2022-07-28T17:53:48.892Z,73.13
2022-07-28T17:56:18.103Z,82.22
2022-07-28T17:58:45.560Z,82.07
2022-07-28T18:01:15.221Z,81.10
2022-07-28T18:03:57.842Z,81.22
2022-07-28T18:06:33.405Z,82.90
2022-07-28T18:09:05.553Z,68.35
2022-07-28T18:11:34.573Z,74.30
2022-07-28T18:14:04.028Z,71.13
2022-07-28T18:16:31.859Z,69.22
2022-07-28T18:18:58.914Z,71.78
2022-07-28T18:21:26.951Z,69.32
2022-07-28T18:23:54.935Z,56.63
2022-07-28T18:26:22.408Z,51.42
2022-07-28T18:28:49.668Z,79.40
2022-07-28T18:31:17.035Z,86.53
2022-07-28T18:33:44.087Z,68.18
2022-07-28T18:36:11.150Z,71.18
2022-07-28T18:38:38.207Z,79.93
2022-07-28T18:41:05.200Z,75.40
2022-07-28T18:43:32.240Z,72.57
2022-07-28T18:45:59.244Z,81.40
2022-07-28T18:48:26.631Z,73.20
2022-07-28T18:50:53.663Z,84.30
2022-07-28T18:53:20.812Z,88.70
2022-07-28T18:55:47.766Z,77.55
2022-07-28T18:58:14.821Z,65.93
2022-07-28T19:00:41.773Z,75.45
2022-07-28T19:03:08.887Z,73.15
2022-07-28T19:05:36.381Z,70.97
2022-07-28T19:08:07.325Z,67.72
2022-07-28T19:10:34.319Z,67.55
2022-07-28T19:13:01.336Z,66.03
2022-07-28T19:15:28.348Z,66.03
2022-07-28T19:18:11.552Z,74.32
2022-07-28T19:20:40.193Z,71.32
2022-07-28T19:23:07.223Z,62.42
2022-07-28T19:25:36.184Z,74.35
2022-07-28T19:28:04.268Z,69.35
2022-07-28T19:30:32.134Z,61.97
2022-07-28T19:33:00.202Z,67.53
2022-07-28T19:35:27.453Z,70.82
2022-07-28T19:37:56.481Z,57.42
2022-07-28T19:40:25.468Z,60.95
2022-07-28T19:42:53.531Z,62.22
2022-07-28T19:45:20.551Z,66.35
2022-07-28T19:47:49.889Z,72.03
2022-07-28T19:50:18.382Z,65.27
2022-07-28T19:52:45.529Z,66.65
2022-07-28T19:55:17.624Z,69.53
2022-07-28T19:57:48.178Z,76.28
2022-07-28T20:00:17.531Z,72.40
2022-07-28T20:02:45.885Z,81.28
2022-07-28T20:05:13.657Z,80.82
2022-07-28T20:07:40.790Z,72.72
2022-07-28T20:10:08.201Z,83.18
2022-07-28T20:12:36.772Z,77.47
2022-07-28T20:15:08.215Z,64.60
2022-07-28T20:17:38.854Z,84.25
2022-07-28T20:20:12.381Z,65.22
2022-07-28T20:22:41.559Z,58.90
2022-07-28T20:25:10.371Z,78.13
2022-07-28T20:27:39.877Z,73.80
2022-07-28T20:30:09.675Z,69.63
2022-07-28T20:32:37.620Z,65.88
2022-07-28T20:35:06.094Z,65.72
2022-07-28T20:37:35.920Z,68.97
2022-07-28T20:40:09.273Z,69.20
2022-07-28T20:42:37.077Z,70.90
2022-07-28T20:45:05.484Z,69.43
2022-07-28T20:47:33.729Z,64.80
2022-07-28T20:50:01.616Z,68.20
2022-07-28T20:52:28.725Z,68.57
2022-07-28T20:54:55.689Z,74.18
2022-07-28T20:57:23.509Z,76.07
2022-07-28T20:59:52.243Z,74.10
2022-07-28T21:02:21.058Z,77.50
2022-07-28T21:04:50.526Z,67.13
2022-07-28T21:08:00.133Z,65.43
2022-07-28T21:10:10.075Z,65.00
2022-07-28T21:12:37.738Z,66.78
2022-07-28T21:15:06.058Z,63.42
2022-07-28T21:17:33.386Z,67.72
2022-07-28T21:20:00.780Z,64.57
2022-07-28T21:22:28.996Z,67.70
2022-07-28T21:24:57.005Z,62.22
2022-07-28T21:27:26.792Z,57.67
2022-07-28T21:32:19.715Z,55.70
2022-07-28T21:34:46.805Z,57.97
2022-07-28T21:37:14.252Z,66.88
2022-07-28T21:39:41.477Z,60.25
2022-07-28T21:42:09.759Z,57.72
2022-07-28T21:44:37.864Z,49.50
2022-07-28T21:47:05.350Z,57.70
2022-07-28T21:49:32.661Z,51.85
2022-07-28T21:52:00.090Z,57.67
2022-07-28T21:54:27.658Z,52.83
2022-07-28T21:56:54.823Z,48.60
2022-07-28T21:59:22.008Z,54.05
2022-07-28T22:01:49.253Z,51.33
2022-07-28T22:04:16.822Z,54.58
2022-07-28T22:06:46.086Z,51.90
2022-07-28T22:09:15.108Z,51.73
2022-07-28T22:11:42.440Z,51.45
2022-07-28T22:14:10.006Z,53.55
2022-07-28T22:16:37.086Z,54.42
2022-07-28T22:19:04.808Z,53.30
2022-07-28T22:21:32.210Z,50.97
2022-07-28T22:23:59.338Z,52.88
2022-07-28T22:26:26.389Z,51.05
2022-07-28T22:28:53.506Z,51.00
2022-07-28T22:31:20.624Z,55.70
2022-07-28T22:33:47.787Z,52.67
2022-07-28T22:36:14.979Z,50.60
2022-07-28T22:38:42.118Z,48.60
2022-07-28T22:41:09.708Z,39.40
2022-07-28T22:43:37.232Z,41.90
2022-07-28T22:46:04.539Z,41.65
2022-07-28T22:48:31.822Z,47.33
2022-07-28T22:50:59.088Z,45.53
2022-07-28T22:53:26.150Z,47.28
2022-07-28T22:55:53.380Z,46.22
2022-07-28T22:58:31.781Z,43.97
2022-07-28T23:01:01.691Z,46.50
2022-07-28T23:03:30.762Z,46.83
2022-07-28T23:06:01.316Z,40.50
2022-07-28T23:08:29.600Z,37.95
2022-07-28T23:10:56.675Z,37.95
2022-07-28T23:13:23.802Z,41.58
2022-07-28T23:15:50.811Z,41.42
2022-07-28T23:18:18.437Z,41.30
2022-07-28T23:20:45.606Z,39.65
2022-07-28T23:23:14.895Z,42.20
2022-07-28T23:25:42.934Z,39.55
2022-07-28T23:28:11.315Z,41.50
2022-07-28T23:30:38.468Z,42.90
2022-07-28T23:33:06.327Z,37.70
2022-07-28T23:35:35.591Z,37.00
2022-07-28T23:38:04.013Z,42.95
2022-07-28T23:40:31.293Z,41.03
2022-07-28T23:42:58.408Z,46.13
2022-07-28T23:45:25.677Z,42.15
2022-07-28T23:47:58.414Z,39.47
2022-07-28T23:50:26.707Z,41.65
2022-07-28T23:52:53.950Z,45.50
2022-07-28T23:55:21.155Z,42.10
2022-07-28T23:57:48.315Z,42.38
